createdAt,value
2018-07-03T00:01:33.269Z,1.20
2018-07-03T00:03:45.966Z,1.10
2018-07-03T00:05:58.317Z,0.93
2018-07-03T00:08:10.664Z,1.10
2018-07-03T00:10:23.066Z,1.10
2018-07-03T00:12:35.454Z,1.13
2018-07-03T00:14:47.799Z,1.30
2018-07-03T00:17:05.794Z,1.10
2018-07-03T00:19:18.144Z,1.07
2018-07-03T00:21:30.498Z,1.13
2018-07-03T00:23:42.989Z,0.90
2018-07-03T00:25:55.298Z,1.07
2018-07-03T00:28:07.803Z,1.10
2018-07-03T00:30:20.149Z,1.10
2018-07-03T00:32:32.523Z,1.17
2018-07-03T00:34:44.949Z,1.23
2018-07-03T00:36:57.285Z,0.90
2018-07-03T00:39:09.736Z,1.10
2018-07-03T00:41:22.146Z,0.97
2018-07-03T00:43:34.589Z,1.10
2018-07-03T00:45:47.022Z,1.00
2018-07-03T00:47:59.454Z,1.07
2018-07-03T00:50:11.861Z,1.20
2018-07-03T00:52:24.242Z,1.03
2018-07-03T00:54:36.745Z,1.10
2018-07-03T00:56:49.069Z,1.10
2018-07-03T00:59:01.641Z,1.20
2018-07-03T01:01:14.129Z,1.23
2018-07-03T01:03:26.534Z,1.80
2018-07-03T01:05:38.990Z,1.53
2018-07-03T01:07:51.446Z,1.40
2018-07-03T01:10:04.290Z,1.10
2018-07-03T01:12:16.605Z,1.00
2018-07-03T01:14:28.970Z,1.10
2018-07-03T01:16:41.387Z,1.20
2018-07-03T01:18:53.741Z,1.23
2018-07-03T01:21:06.115Z,1.40
2018-07-03T01:23:18.547Z,1.27
2018-07-03T01:25:30.909Z,1.37
2018-07-03T01:27:43.233Z,1.00
2018-07-03T01:29:55.934Z,1.43
2018-07-03T01:32:08.272Z,1.40
2018-07-03T01:34:20.597Z,1.30
2018-07-03T01:36:32.956Z,1.30
2018-07-03T01:38:45.370Z,1.23
2018-07-03T01:40:58.148Z,1.20
2018-07-03T01:43:10.468Z,1.10
2018-07-03T01:45:22.820Z,1.30
2018-07-03T01:47:35.173Z,1.30
2018-07-03T01:49:47.597Z,1.10
2018-07-03T01:51:59.989Z,1.10
2018-07-03T01:54:12.929Z,1.10
2018-07-03T01:56:25.548Z,0.80
2018-07-03T01:58:37.947Z,1.30
2018-07-03T02:00:50.429Z,1.30
2018-07-03T02:03:02.917Z,1.20
2018-07-03T02:05:15.297Z,1.07
2018-07-03T02:07:27.674Z,1.10
2018-07-03T02:09:40.053Z,1.23
2018-07-03T02:11:52.373Z,1.17
2018-07-03T02:14:05.249Z,1.30
2018-07-03T02:16:17.589Z,1.43
2018-07-03T02:18:30.010Z,1.07
2018-07-03T02:20:42.301Z,1.00
2018-07-03T02:22:54.644Z,0.93
2018-07-03T02:25:07.161Z,1.30
2018-07-03T02:27:19.681Z,1.30
2018-07-03T02:29:32.265Z,1.13
2018-07-03T02:31:44.587Z,1.20
2018-07-03T02:33:56.990Z,1.20
2018-07-03T02:36:09.338Z,1.17
2018-07-03T02:38:21.735Z,1.20
2018-07-03T02:40:34.212Z,1.27
2018-07-03T02:42:46.662Z,1.20
2018-07-03T02:44:59.006Z,1.30
2018-07-03T02:47:11.356Z,1.30
2018-07-03T02:49:23.999Z,1.30
2018-07-03T02:51:36.326Z,1.40
2018-07-03T02:53:48.646Z,1.13
2018-07-03T02:56:01.093Z,1.20
2018-07-03T02:58:13.501Z,1.20
2018-07-03T03:00:26.113Z,1.40
2018-07-03T03:02:38.486Z,1.30
2018-07-03T03:04:50.910Z,1.20
2018-07-03T03:07:03.432Z,1.27
2018-07-03T03:09:15.761Z,1.50
2018-07-03T03:11:28.118Z,1.43
2018-07-03T03:13:40.482Z,1.10
2018-07-03T03:15:52.910Z,1.33
2018-07-03T03:18:05.374Z,1.30
2018-07-03T03:20:17.690Z,1.30
2018-07-03T03:22:30.062Z,1.27
2018-07-03T03:24:42.351Z,1.30
2018-07-03T03:26:54.670Z,1.70
2018-07-03T03:29:07.034Z,1.30
2018-07-03T03:31:19.518Z,1.27
2018-07-03T03:33:31.980Z,1.37
2018-07-03T03:35:44.298Z,1.30
2018-07-03T03:37:56.651Z,1.70
2018-07-03T03:40:09.130Z,1.80
2018-07-03T03:42:21.490Z,1.57
2018-07-03T03:44:33.882Z,1.47
2018-07-03T03:46:46.362Z,1.23
2018-07-03T03:48:58.728Z,1.47
2018-07-03T03:51:11.187Z,1.50
2018-07-03T03:53:23.627Z,1.70
2018-07-03T03:55:35.958Z,1.93
2018-07-03T03:57:48.318Z,1.50
2018-07-03T04:00:00.689Z,1.90
2018-07-03T04:02:13.089Z,1.07
2018-07-03T04:04:25.412Z,1.70
2018-07-03T04:06:37.739Z,1.70
2018-07-03T04:08:50.121Z,1.40
2018-07-03T04:11:02.534Z,1.30
2018-07-03T04:13:14.852Z,1.50
2018-07-03T04:15:27.326Z,1.30
2018-07-03T04:17:39.775Z,1.30
2018-07-03T04:19:52.146Z,1.90
2018-07-03T04:22:04.530Z,1.50
2018-07-03T04:24:16.919Z,1.60
2018-07-03T04:26:29.314Z,3.00
2018-07-03T04:28:41.698Z,1.80
2018-07-03T04:30:54.078Z,1.40
2018-07-03T04:33:06.399Z,1.23
2018-07-03T04:35:18.790Z,1.40
2018-07-03T04:37:31.257Z,1.47
2018-07-03T04:39:44.414Z,1.80
2018-07-03T04:41:56.809Z,1.70
2018-07-03T04:44:09.209Z,1.17
2018-07-03T04:46:21.626Z,1.77
2018-07-03T04:48:33.972Z,1.40
2018-07-03T04:50:46.548Z,1.30
2018-07-03T04:52:58.927Z,1.20
2018-07-03T04:55:11.877Z,1.43
2018-07-03T04:57:24.478Z,1.60
2018-07-03T04:59:36.814Z,1.10
2018-07-03T05:01:49.218Z,1.30
2018-07-03T05:04:03.573Z,1.70
2018-07-03T05:06:15.970Z,1.67
2018-07-03T05:08:28.408Z,1.80
2018-07-03T05:10:40.819Z,1.50
2018-07-03T05:12:53.137Z,1.37
2018-07-03T05:15:05.620Z,1.20
2018-07-03T05:17:18.177Z,1.50
2018-07-03T05:19:30.805Z,1.07
2018-07-03T05:21:43.099Z,1.40
2018-07-03T05:23:55.520Z,1.47
2018-07-03T05:26:07.938Z,1.00
2018-07-03T05:28:20.326Z,1.03
2018-07-03T05:30:32.704Z,1.13
2018-07-03T05:32:45.054Z,1.30
2018-07-03T05:34:57.546Z,1.23
2018-07-03T05:37:10.015Z,1.43
2018-07-03T05:39:22.530Z,1.20
2018-07-03T05:41:35.005Z,1.40
2018-07-03T05:43:53.102Z,1.40
2018-07-03T05:46:05.558Z,1.30
2018-07-03T05:48:17.970Z,1.40
2018-07-03T05:50:30.315Z,1.20
2018-07-03T05:52:42.786Z,1.50
2018-07-03T05:54:55.137Z,1.33
2018-07-03T05:57:07.506Z,1.13
2018-07-03T05:59:20.528Z,1.20
2018-07-03T06:01:32.901Z,1.40
2018-07-03T06:03:45.448Z,1.10
2018-07-03T06:05:57.797Z,1.17
2018-07-03T06:08:10.136Z,0.93
2018-07-03T06:10:22.491Z,1.30
2018-07-03T06:12:34.887Z,1.00
2018-07-03T06:14:47.297Z,1.13
2018-07-03T06:16:59.709Z,1.10
2018-07-03T06:19:12.164Z,1.47
2018-07-03T06:21:24.639Z,0.97
2018-07-03T06:23:37.058Z,1.40
2018-07-03T06:25:49.531Z,1.10
2018-07-03T06:28:01.907Z,1.10
2018-07-03T06:30:14.291Z,1.07
2018-07-03T06:32:26.843Z,1.10
2018-07-03T06:34:39.195Z,1.20
2018-07-03T06:36:51.474Z,1.17
2018-07-03T06:39:07.346Z,1.10
2018-07-03T06:41:19.738Z,1.10
2018-07-03T06:43:32.135Z,1.07
2018-07-03T06:45:44.698Z,1.03
2018-07-03T06:47:57.435Z,0.90
2018-07-03T06:50:09.814Z,1.20
2018-07-03T06:52:22.251Z,1.10
2018-07-03T06:54:34.594Z,0.90
2018-07-03T06:56:46.971Z,0.90
2018-07-03T06:58:59.318Z,1.30
2018-07-03T07:01:11.790Z,0.90
2018-07-03T07:03:24.162Z,1.07
2018-07-03T07:05:36.563Z,0.93
2018-07-03T07:07:48.918Z,1.00
2018-07-03T07:10:01.365Z,1.20
2018-07-03T07:12:13.774Z,0.80
2018-07-03T07:14:26.209Z,0.80
2018-07-03T07:16:38.775Z,1.20
2018-07-03T07:18:51.143Z,0.90
2018-07-03T07:21:03.498Z,0.80
2018-07-03T07:23:15.840Z,1.00
2018-07-03T07:25:28.207Z,0.80
2018-07-03T07:27:40.570Z,1.00
2018-07-03T07:29:52.887Z,0.77
2018-07-03T07:32:05.521Z,0.90
2018-07-03T07:34:17.890Z,0.90
2018-07-03T07:36:30.290Z,0.83
2018-07-03T07:38:42.657Z,0.93
2018-07-03T07:40:55.661Z,1.00
2018-07-03T07:43:08.011Z,0.83
2018-07-03T07:45:20.388Z,0.73
2018-07-03T07:47:34.686Z,0.90
2018-07-03T07:49:47.130Z,0.90
2018-07-03T07:51:59.526Z,0.77
2018-07-03T07:54:11.946Z,1.00
2018-07-03T07:56:24.332Z,0.87
2018-07-03T07:58:36.917Z,1.00
2018-07-03T08:00:49.327Z,1.00
2018-07-03T08:03:01.798Z,0.80
2018-07-03T08:05:14.158Z,0.80
2018-07-03T08:07:37.287Z,0.87
2018-07-03T08:09:49.714Z,0.90
2018-07-03T08:12:04.040Z,1.00
2018-07-03T08:14:16.416Z,0.73
2018-07-03T08:16:31.758Z,0.87
2018-07-03T08:18:44.130Z,0.63
2018-07-03T08:20:56.521Z,1.00
2018-07-03T08:23:09.627Z,0.97
2018-07-03T08:25:23.934Z,1.03
2018-07-03T08:27:36.465Z,0.80
2018-07-03T08:29:48.915Z,0.98
2018-07-03T08:32:01.306Z,1.00
2018-07-03T08:34:13.641Z,0.90
2018-07-03T08:36:26.107Z,0.90
2018-07-03T08:38:38.629Z,0.90
2018-07-03T08:40:51.103Z,0.80
2018-07-03T08:43:03.605Z,1.00
2018-07-03T08:45:16.772Z,0.80
2018-07-03T08:47:29.118Z,0.78
2018-07-03T08:49:41.498Z,0.70
2018-07-03T08:51:53.929Z,0.82
2018-07-03T08:54:06.418Z,1.00
2018-07-03T08:56:18.773Z,0.90
2018-07-03T08:58:36.982Z,0.80
2018-07-03T09:00:49.447Z,0.75
2018-07-03T09:03:01.867Z,0.80
2018-07-03T09:05:14.254Z,0.70
2018-07-03T09:07:26.673Z,0.70
2018-07-03T09:09:39.033Z,0.95
2018-07-03T09:11:51.582Z,0.80
2018-07-03T09:14:04.285Z,0.90
2018-07-03T09:16:17.449Z,0.55
2018-07-03T09:18:29.860Z,1.05
2018-07-03T09:20:42.284Z,0.85
2018-07-03T09:22:54.726Z,0.80
2018-07-03T09:25:07.235Z,0.70
2018-07-03T09:27:19.643Z,1.30
2018-07-03T09:29:31.990Z,1.07
2018-07-03T09:31:44.362Z,1.12
2018-07-03T09:33:56.795Z,0.70
2018-07-03T09:36:11.074Z,0.75
2018-07-03T09:38:23.610Z,0.90
2018-07-03T09:40:36.253Z,0.82
2018-07-03T09:42:48.841Z,0.75
2018-07-03T09:45:01.427Z,0.95
2018-07-03T09:47:13.946Z,0.90
2018-07-03T09:49:26.326Z,0.80
2018-07-03T09:51:38.710Z,1.05
2018-07-03T09:53:51.154Z,0.78
2018-07-03T09:56:03.578Z,1.10
2018-07-03T09:58:15.934Z,1.00
2018-07-03T10:00:33.859Z,1.05
2018-07-03T10:02:46.444Z,1.00
2018-07-03T10:04:58.805Z,0.98
2018-07-03T10:07:11.286Z,0.90
2018-07-03T10:09:23.710Z,1.10
2018-07-03T10:11:36.094Z,0.80
2018-07-03T10:13:48.582Z,0.95
2018-07-03T10:16:01.025Z,0.72
2018-07-03T10:18:13.698Z,0.95
2018-07-03T10:20:26.174Z,0.85
2018-07-03T10:22:38.524Z,0.80
2018-07-03T10:24:50.936Z,0.80
2018-07-03T10:27:03.344Z,0.90
2018-07-03T10:29:15.701Z,0.80
2018-07-03T10:31:28.126Z,0.80
2018-07-03T10:33:40.656Z,1.07
2018-07-03T10:35:53.099Z,1.10
2018-07-03T10:38:05.838Z,1.00
2018-07-03T10:40:18.474Z,1.17
2018-07-03T10:42:30.891Z,1.07
2018-07-03T10:44:43.286Z,0.90
2018-07-03T10:46:55.701Z,1.15
2018-07-03T10:49:08.069Z,1.20
2018-07-03T10:51:20.539Z,0.90
2018-07-03T10:53:32.925Z,0.80
2018-07-03T10:55:48.383Z,1.00
2018-07-03T10:58:04.598Z,1.20
2018-07-03T11:00:18.007Z,1.10
2018-07-03T11:02:30.386Z,1.05
2018-07-03T11:04:42.801Z,1.00
2018-07-03T11:06:55.356Z,0.95
2018-07-03T11:09:09.734Z,0.90
2018-07-03T11:11:22.103Z,0.95
2018-07-03T11:13:34.494Z,1.10
2018-07-03T11:15:52.911Z,1.20
2018-07-03T11:18:05.342Z,1.10
2018-07-03T11:20:17.890Z,1.02
2018-07-03T11:22:30.186Z,1.17
2018-07-03T11:24:42.574Z,1.00
2018-07-03T11:26:55.192Z,1.07
2018-07-03T11:29:08.030Z,1.20
2018-07-03T11:31:20.392Z,1.12
2018-07-03T11:33:32.789Z,1.12
2018-07-03T11:35:45.181Z,1.10
2018-07-03T11:37:58.221Z,1.47
2018-07-03T11:40:10.602Z,1.10
2018-07-03T11:42:23.002Z,1.42
2018-07-03T11:44:35.375Z,1.40
2018-07-03T11:46:47.765Z,1.40
2018-07-03T11:49:00.280Z,1.27
2018-07-03T11:51:13.470Z,1.20
2018-07-03T11:53:29.804Z,1.22
2018-07-03T11:55:43.023Z,1.40
2018-07-03T11:57:55.393Z,1.02
2018-07-03T12:00:07.915Z,1.20
2018-07-03T12:02:20.303Z,1.40
2018-07-03T12:04:32.766Z,1.32
2018-07-03T12:06:45.128Z,1.42
2018-07-03T12:08:57.498Z,1.50
2018-07-03T12:11:10.078Z,1.27
2018-07-03T12:13:23.285Z,1.17
2018-07-03T12:15:37.717Z,1.50
2018-07-03T12:17:50.141Z,1.50
2018-07-03T12:20:02.764Z,1.55
2018-07-03T12:22:15.194Z,1.15
2018-07-03T12:24:27.774Z,1.65
2018-07-03T12:26:40.378Z,1.35
2018-07-03T12:28:52.827Z,1.35
2018-07-03T12:31:05.418Z,1.30
2018-07-03T12:33:17.805Z,1.60
2018-07-03T12:35:30.234Z,1.45
2018-07-03T12:37:42.562Z,1.60
2018-07-03T12:39:54.915Z,1.30
2018-07-03T12:42:07.410Z,1.35
2018-07-03T12:44:19.767Z,1.47
2018-07-03T12:46:33.833Z,1.50
2018-07-03T12:48:46.293Z,1.52
2018-07-03T12:50:58.647Z,1.40
2018-07-03T12:53:10.949Z,1.67
2018-07-03T12:55:23.376Z,1.72
2018-07-03T12:57:35.754Z,1.42
2018-07-03T12:59:48.070Z,1.75
2018-07-03T13:02:00.524Z,1.80
2018-07-03T13:04:12.925Z,1.70
2018-07-03T13:06:25.307Z,1.73
2018-07-03T13:08:37.634Z,1.50
2018-07-03T13:10:50.226Z,1.97
2018-07-03T13:13:02.616Z,1.40
2018-07-03T13:15:15.129Z,2.00
2018-07-03T13:17:27.502Z,1.70
2018-07-03T13:19:39.893Z,1.52
2018-07-03T13:21:52.259Z,2.00
2018-07-03T13:24:04.834Z,1.57
2018-07-03T13:26:17.219Z,2.10
2018-07-03T13:28:29.618Z,2.20
2018-07-03T13:30:42.046Z,1.75
2018-07-03T13:32:54.441Z,1.57
2018-07-03T13:35:08.090Z,1.80
2018-07-03T13:37:20.638Z,1.90
2018-07-03T13:39:33.046Z,1.95
2018-07-03T13:41:45.546Z,1.97
2018-07-03T13:43:57.917Z,2.25
2018-07-03T13:46:10.293Z,2.10
2018-07-03T13:48:24.307Z,1.60
2018-07-03T13:50:36.698Z,1.90
2018-07-03T13:52:49.066Z,1.95
2018-07-03T13:55:01.567Z,2.33
2018-07-03T13:57:13.899Z,2.05
2018-07-03T13:59:26.386Z,2.45
2018-07-03T14:01:38.778Z,2.37
2018-07-03T14:03:51.289Z,2.95
2018-07-03T14:06:03.677Z,2.53
2018-07-03T14:08:16.022Z,2.30
2018-07-03T14:10:29.358Z,2.33
2018-07-03T14:12:41.745Z,2.62
2018-07-03T14:14:54.129Z,2.98
2018-07-03T14:17:06.568Z,2.70
2018-07-03T14:19:18.885Z,2.43
2018-07-03T14:21:31.307Z,2.87
2018-07-03T14:23:44.494Z,2.90
2018-07-03T14:25:57.257Z,2.57
2018-07-03T14:28:12.475Z,2.77
2018-07-03T14:30:24.870Z,2.90
2018-07-03T14:32:37.305Z,2.60
2018-07-03T14:34:49.887Z,2.93
2018-07-03T14:37:02.248Z,2.43
2018-07-03T14:39:14.802Z,2.67
2018-07-03T14:41:27.143Z,2.63
2018-07-03T14:43:39.819Z,2.60
2018-07-03T14:45:52.366Z,2.47
2018-07-03T14:48:05.289Z,2.67
2018-07-03T14:50:17.653Z,2.50
2018-07-03T14:52:31.891Z,3.07
2018-07-03T14:54:48.142Z,2.70
2018-07-03T14:57:00.755Z,3.00
2018-07-03T14:59:13.189Z,2.90
2018-07-03T15:01:25.587Z,3.10
2018-07-03T15:03:37.946Z,3.13
2018-07-03T15:05:50.395Z,3.00
2018-07-03T15:08:02.739Z,2.80
2018-07-03T15:10:15.189Z,2.87
2018-07-03T15:12:27.647Z,2.60
2018-07-03T15:14:40.046Z,3.00
2018-07-03T15:16:52.586Z,2.70
2018-07-03T15:19:13.239Z,2.70
2018-07-03T15:21:26.721Z,3.00
2018-07-03T15:23:39.076Z,2.10
2018-07-03T15:25:51.555Z,2.60
2018-07-03T15:28:03.898Z,2.20
2018-07-03T15:30:18.157Z,2.40
2018-07-03T15:32:30.570Z,2.50
2018-07-03T15:34:43.161Z,2.47
2018-07-03T15:36:55.467Z,3.03
2018-07-03T15:39:10.522Z,2.45
2018-07-03T15:41:22.977Z,2.37
2018-07-03T15:43:35.335Z,2.40
2018-07-03T15:45:47.727Z,2.25
2018-07-03T15:48:00.224Z,2.23
2018-07-03T15:50:13.420Z,1.90
2018-07-03T15:52:25.886Z,2.37
2018-07-03T15:54:38.290Z,2.12
2018-07-03T15:56:50.815Z,2.17
2018-07-03T15:59:03.262Z,2.13
2018-07-03T16:01:15.730Z,2.27
2018-07-03T16:05:41.862Z,2.30
2018-07-03T16:09:05.226Z,2.20
2018-07-03T16:11:17.794Z,2.77
2018-07-03T16:13:30.174Z,2.37
2018-07-03T16:15:42.510Z,2.40
2018-07-03T16:17:54.925Z,2.40
2018-07-03T16:20:15.798Z,2.47
2018-07-03T16:22:28.226Z,2.20
2018-07-03T16:24:40.590Z,2.40
2018-07-03T16:26:53.006Z,2.30
2018-07-03T16:29:07.663Z,2.20
2018-07-03T16:31:20.006Z,2.50
2018-07-03T16:33:32.441Z,2.20
2018-07-03T16:35:44.778Z,2.13
2018-07-03T16:37:57.239Z,2.60
2018-07-03T16:40:09.605Z,2.60
2018-07-03T16:42:21.982Z,2.50
2018-07-03T16:44:34.348Z,2.17
2018-07-03T16:46:46.858Z,2.30
2018-07-03T16:48:59.246Z,2.13
2018-07-03T16:51:11.907Z,2.43
2018-07-03T16:53:24.252Z,2.50
2018-07-03T16:55:36.690Z,2.30
2018-07-03T16:57:49.122Z,2.33
2018-07-03T17:00:01.478Z,2.20
2018-07-03T17:02:13.882Z,1.67
2018-07-03T17:04:26.408Z,1.77
2018-07-03T17:06:38.879Z,2.80
2018-07-03T17:08:51.370Z,2.10
2018-07-03T17:11:03.842Z,2.20
2018-07-03T17:13:17.050Z,2.37
2018-07-03T17:15:29.414Z,2.33
2018-07-03T17:17:41.766Z,2.00
2018-07-03T17:19:54.150Z,2.40
2018-07-03T17:22:06.961Z,1.93
2018-07-03T17:24:19.410Z,2.10
2018-07-03T17:26:31.816Z,2.00
2018-07-03T17:28:44.165Z,1.90
2018-07-03T17:30:56.766Z,1.40
2018-07-03T17:33:09.486Z,2.20
2018-07-03T17:35:21.795Z,2.57
2018-07-03T17:37:34.163Z,2.10
2018-07-03T17:39:57.865Z,2.20
2018-07-03T17:42:21.506Z,2.23
2018-07-03T17:44:50.637Z,2.20
2018-07-03T17:47:03.281Z,1.70
2018-07-03T17:49:15.721Z,2.20
2018-07-03T17:51:28.214Z,2.17
2018-07-03T17:53:40.627Z,2.40
2018-07-03T17:55:53.093Z,2.60
2018-07-03T17:58:06.263Z,2.07
2018-07-03T18:00:18.719Z,2.77
2018-07-03T18:02:31.079Z,2.23
2018-07-03T18:04:43.429Z,2.50
2018-07-03T18:06:55.822Z,2.43
2018-07-03T18:09:09.837Z,2.20
2018-07-03T18:11:22.253Z,2.40
2018-07-03T18:13:34.642Z,2.30
2018-07-03T18:15:47.022Z,1.80
2018-07-03T18:17:59.378Z,2.60
2018-07-03T18:20:11.871Z,2.00
2018-07-03T18:22:24.293Z,2.77
2018-07-03T18:24:36.685Z,3.53
2018-07-03T18:26:49.047Z,2.50
2018-07-03T18:29:01.598Z,2.80
2018-07-03T18:31:13.978Z,3.20
2018-07-03T18:33:26.390Z,2.93
2018-07-03T18:35:38.732Z,2.17
2018-07-03T18:37:51.072Z,1.93
2018-07-03T18:40:04.022Z,2.47
2018-07-03T18:42:16.657Z,2.97
2018-07-03T18:44:29.934Z,2.00
2018-07-03T18:46:42.278Z,3.03
2018-07-03T18:48:54.661Z,3.00
2018-07-03T18:51:07.127Z,3.60
2018-07-03T18:53:19.553Z,2.60
2018-07-03T18:55:31.943Z,2.27
2018-07-03T18:57:44.454Z,2.37
2018-07-03T18:59:57.258Z,2.40
2018-07-03T19:02:09.719Z,3.10
2018-07-03T19:04:22.111Z,2.83
2018-07-03T19:06:34.486Z,3.30
2018-07-03T19:08:46.879Z,2.63
2018-07-03T19:10:59.334Z,2.60
2018-07-03T19:13:11.766Z,2.53
2018-07-03T19:15:24.128Z,2.30
2018-07-03T19:17:36.565Z,2.50
2018-07-03T19:19:49.022Z,2.70
2018-07-03T19:22:01.484Z,2.63
2018-07-03T19:24:13.845Z,2.70
2018-07-03T19:26:26.481Z,2.50
2018-07-03T19:28:38.874Z,2.43
2018-07-03T19:30:51.270Z,2.43
2018-07-03T19:33:03.597Z,2.70
2018-07-03T19:35:15.998Z,2.27
2018-07-03T19:37:28.374Z,2.60
2018-07-03T19:39:40.799Z,2.43
2018-07-03T19:41:53.118Z,2.73
2018-07-03T19:44:05.581Z,2.67
2018-07-03T19:46:17.901Z,2.53
2018-07-03T19:48:30.369Z,2.23
2018-07-03T19:50:42.727Z,2.40
2018-07-03T19:52:55.191Z,2.93
2018-07-03T19:55:07.586Z,2.53
2018-07-03T19:57:19.985Z,2.60
2018-07-03T19:59:32.373Z,2.87
2018-07-03T20:01:44.765Z,2.67
2018-07-03T20:03:57.163Z,2.67
2018-07-03T20:06:09.533Z,2.90
2018-07-03T20:08:22.014Z,2.83
2018-07-03T20:10:35.309Z,2.77
2018-07-03T20:12:47.683Z,2.60
2018-07-03T20:15:00.081Z,2.50
2018-07-03T20:17:12.445Z,3.40
2018-07-03T20:19:24.847Z,4.20
2018-07-03T20:21:37.324Z,3.30
2018-07-03T20:23:49.716Z,2.57
2018-07-03T20:26:02.187Z,2.70
2018-07-03T20:28:14.531Z,2.47
2018-07-03T20:30:26.912Z,2.50
2018-07-03T20:32:39.311Z,2.63
2018-07-03T20:34:51.637Z,2.37
2018-07-03T20:37:04.011Z,2.80
2018-07-03T20:39:16.397Z,3.00
2018-07-03T20:41:28.807Z,2.60
2018-07-03T20:43:41.826Z,2.80
2018-07-03T20:45:54.305Z,2.63
2018-07-03T20:48:06.671Z,2.17
2018-07-03T20:50:19.300Z,2.70
2018-07-03T20:52:31.686Z,2.30
2018-07-03T20:54:44.014Z,2.70
2018-07-03T20:56:56.431Z,3.00
2018-07-03T20:59:08.863Z,3.10
2018-07-03T21:01:21.314Z,2.93
2018-07-03T21:03:33.692Z,2.63
2018-07-03T21:05:46.136Z,3.00
2018-07-03T21:07:58.456Z,2.83
2018-07-03T21:10:10.825Z,3.00
2018-07-03T21:12:23.246Z,2.90
2018-07-03T21:14:35.685Z,3.10
2018-07-03T21:16:48.048Z,3.10
2018-07-03T21:19:00.347Z,2.80
2018-07-03T21:21:12.731Z,3.10
2018-07-03T21:23:25.057Z,2.80
2018-07-03T21:25:37.417Z,3.17
2018-07-03T21:27:49.789Z,2.90
2018-07-03T21:30:02.238Z,2.97
2018-07-03T21:32:14.606Z,4.47
2018-07-03T21:34:26.916Z,4.17
2018-07-03T21:36:39.308Z,3.50
2018-07-03T21:38:51.721Z,3.50
2018-07-03T21:41:04.134Z,3.00
2018-07-03T21:43:16.498Z,3.40
2018-07-03T21:45:28.810Z,3.10
2018-07-03T21:47:41.162Z,3.50
2018-07-03T21:49:53.488Z,3.30
2018-07-03T21:52:05.889Z,3.17
2018-07-03T21:54:18.443Z,3.23
2018-07-03T21:56:30.817Z,3.17
2018-07-03T21:58:43.117Z,3.30
2018-07-03T22:00:55.563Z,3.60
2018-07-03T22:03:09.248Z,3.50
2018-07-03T22:05:21.585Z,3.67
2018-07-03T22:07:34.227Z,3.27
2018-07-03T22:09:46.613Z,3.23
2018-07-03T22:11:59.074Z,3.47
2018-07-03T22:14:11.509Z,3.63
2018-07-03T22:16:23.810Z,3.60
2018-07-03T22:18:36.290Z,3.40
2018-07-03T22:20:48.736Z,3.67
2018-07-03T22:23:01.074Z,3.40
2018-07-03T22:25:13.366Z,4.03
2018-07-03T22:27:25.742Z,3.17
2018-07-03T22:29:38.050Z,3.53
2018-07-03T22:31:50.397Z,3.23
2018-07-03T22:34:02.690Z,2.90
2018-07-03T22:36:14.977Z,3.77
2018-07-03T22:38:27.329Z,3.60
2018-07-03T22:40:39.845Z,3.30
2018-07-03T22:42:52.146Z,3.53
2018-07-03T22:45:04.702Z,3.70
2018-07-03T22:47:17.026Z,3.90
2018-07-03T22:49:29.378Z,3.93
2018-07-03T22:51:41.713Z,4.07
2018-07-03T22:53:54.185Z,3.40
2018-07-03T22:56:06.513Z,3.57
2018-07-03T22:58:18.987Z,3.50
2018-07-03T23:00:31.406Z,4.00
2018-07-03T23:02:43.718Z,3.60
2018-07-03T23:04:56.321Z,3.87
2018-07-03T23:07:08.707Z,3.87
2018-07-03T23:09:21.026Z,4.30
2018-07-03T23:11:33.401Z,4.20
2018-07-03T23:13:45.812Z,3.77
2018-07-03T23:15:58.293Z,4.00
2018-07-03T23:18:10.609Z,4.10
2018-07-03T23:20:22.909Z,4.03
2018-07-03T23:22:35.270Z,3.97
2018-07-03T23:24:47.541Z,4.00
2018-07-03T23:26:59.874Z,4.33
2018-07-03T23:29:12.245Z,3.83
2018-07-03T23:31:24.674Z,3.90
2018-07-03T23:33:37.042Z,4.13
2018-07-03T23:35:49.365Z,3.87
2018-07-03T23:38:01.686Z,3.90
2018-07-03T23:40:14.129Z,3.87
2018-07-03T23:42:26.534Z,3.93
2018-07-03T23:44:38.866Z,4.17
2018-07-03T23:47:02.590Z,4.17
2018-07-03T23:49:26.414Z,4.10
2018-07-03T23:51:50.117Z,4.10
2018-07-03T23:54:13.847Z,4.00
2018-07-03T23:56:38.737Z,4.10
2018-07-03T23:59:03.861Z,4.03
